createdAt,value
2018-08-13T00:00:40.142Z,99781.36
2018-08-13T00:03:08.325Z,99782.20
2018-08-13T00:05:36.383Z,99774.67
2018-08-13T00:08:04.531Z,99771.31
2018-08-13T00:10:32.591Z,99767.97
2018-08-13T00:13:00.656Z,99762.28
2018-08-13T00:15:28.727Z,99769.45
2018-08-13T00:17:56.772Z,99766.70
2018-08-13T00:20:24.876Z,99766.74
2018-08-13T00:22:52.986Z,99760.60
2018-08-13T00:25:21.076Z,99758.29
2018-08-13T00:27:49.147Z,99756.33
2018-08-13T00:30:17.210Z,99741.66
2018-08-13T00:32:45.519Z,99741.73
2018-08-13T00:35:13.629Z,99750.94
2018-08-13T00:37:41.736Z,99745.56
2018-08-13T00:40:11.382Z,99742.58
2018-08-13T00:42:39.460Z,99732.27
2018-08-13T00:45:08.532Z,99724.92
2018-08-13T00:47:36.652Z,99734.13
2018-08-13T00:50:07.528Z,99722.81
2018-08-13T00:52:35.579Z,99723.48
2018-08-13T00:55:03.907Z,99722.91
2018-08-13T00:57:31.967Z,99723.38
2018-08-13T01:00:00.017Z,99726.20
2018-08-13T01:02:34.879Z,99722.42
2018-08-13T01:05:02.937Z,99728.20
2018-08-13T01:07:31.029Z,99712.30
2018-08-13T01:09:59.127Z,99715.48
2018-08-13T01:12:27.206Z,99709.55
2018-08-13T01:14:55.279Z,99706.80
2018-08-13T01:17:23.393Z,99703.87
2018-08-13T01:19:51.481Z,99700.16
2018-08-13T01:22:19.560Z,99699.80
2018-08-13T01:24:47.624Z,99695.05
2018-08-13T01:27:21.068Z,99690.50
2018-08-13T01:29:49.275Z,99691.93
2018-08-13T01:32:17.344Z,99692.36
2018-08-13T01:34:45.710Z,99689.01
2018-08-13T01:37:13.835Z,99682.67
2018-08-13T01:39:41.895Z,99683.89
2018-08-13T01:42:09.971Z,99681.73
2018-08-13T01:44:38.070Z,99681.17
2018-08-13T01:47:06.189Z,99682.20
2018-08-13T01:49:34.270Z,99679.41
2018-08-13T01:52:02.820Z,99675.03
2018-08-13T01:54:30.859Z,99678.61
2018-08-13T01:56:58.892Z,99675.83
2018-08-13T01:59:26.966Z,99676.62
2018-08-13T02:01:55.129Z,99676.39
2018-08-13T02:04:23.597Z,99673.37
2018-08-13T02:06:51.632Z,99672.59
2018-08-13T02:09:19.699Z,99668.41
2018-08-13T02:11:47.799Z,99655.08
2018-08-13T02:14:15.876Z,99657.70
2018-08-13T02:16:43.954Z,99654.70
2018-08-13T02:19:12.036Z,99649.56
2018-08-13T02:21:40.138Z,99642.77
2018-08-13T02:24:08.232Z,99644.39
2018-08-13T02:26:36.307Z,99655.59
2018-08-13T02:29:04.366Z,99651.84
2018-08-13T02:31:32.407Z,99645.34
2018-08-13T02:34:00.468Z,99654.52
2018-08-13T02:36:28.547Z,99654.52
2018-08-13T02:38:56.682Z,99657.67
2018-08-13T02:41:25.807Z,99656.48
2018-08-13T02:43:53.872Z,99651.05
2018-08-13T02:46:21.950Z,99648.86
2018-08-13T02:48:50.003Z,99645.91
2018-08-13T02:51:18.091Z,99638.75
2018-08-13T02:53:46.141Z,99640.14
2018-08-13T02:56:14.223Z,99642.36
2018-08-13T02:58:42.292Z,99650.55
2018-08-13T03:01:10.332Z,99640.97
2018-08-13T03:03:38.403Z,99634.00
2018-08-13T03:06:06.648Z,99626.81
2018-08-13T03:08:34.758Z,99627.61
2018-08-13T03:11:02.792Z,99619.83
2018-08-13T03:13:30.864Z,99613.06
2018-08-13T03:15:58.903Z,99619.59
2018-08-13T03:18:27.003Z,99621.55
2018-08-13T03:20:55.055Z,99621.31
2018-08-13T03:23:23.133Z,99623.47
2018-08-13T03:25:51.205Z,99624.03
2018-08-13T03:28:19.281Z,99617.07
2018-08-13T03:30:47.354Z,99616.84
2018-08-13T03:33:15.403Z,99617.63
2018-08-13T03:35:43.443Z,99613.82
2018-08-13T03:38:11.518Z,99611.63
2018-08-13T03:40:39.576Z,99608.88
2018-08-13T03:43:07.655Z,99612.89
2018-08-13T03:45:35.715Z,99605.73
2018-08-13T03:48:03.826Z,99603.54
2018-08-13T03:50:31.881Z,99607.13
2018-08-13T03:52:59.903Z,99597.37
2018-08-13T03:55:28.055Z,99593.43
2018-08-13T03:57:56.101Z,99602.55
2018-08-13T04:00:24.204Z,99597.14
2018-08-13T04:02:52.550Z,99593.98
2018-08-13T04:05:20.623Z,99591.63
2018-08-13T04:07:48.713Z,99595.61
2018-08-13T04:10:16.928Z,99587.86
2018-08-13T04:12:45.069Z,99585.67
2018-08-13T04:15:14.287Z,99585.11
2018-08-13T04:17:43.032Z,99589.88
2018-08-13T04:20:12.304Z,99574.76
2018-08-13T04:22:40.375Z,99562.42
2018-08-13T04:25:09.612Z,99561.99
2018-08-13T04:27:38.197Z,99556.42
2018-08-13T04:30:13.671Z,99554.23
2018-08-13T04:32:42.432Z,99558.61
2018-08-13T04:35:10.404Z,99552.84
2018-08-13T04:37:38.689Z,99550.02
2018-08-13T04:40:09.172Z,99552.57
2018-08-13T04:42:37.257Z,99558.10
2018-08-13T04:45:06.107Z,99554.25
2018-08-13T04:47:34.312Z,99547.00
2018-08-13T04:50:02.440Z,99546.77
2018-08-13T04:52:30.529Z,99532.30
2018-08-13T04:54:58.588Z,99534.52
2018-08-13T04:57:26.772Z,99536.24
2018-08-13T04:59:55.195Z,99528.17
2018-08-13T05:02:23.475Z,99533.58
2018-08-13T05:04:51.538Z,99540.41
2018-08-13T05:07:20.614Z,99543.39
2018-08-13T05:09:48.650Z,99537.16
2018-08-13T05:12:16.688Z,99529.92
2018-08-13T05:14:44.751Z,99541.38
2018-08-13T05:17:12.780Z,99547.84
2018-08-13T05:19:40.863Z,99542.25
2018-08-13T05:22:08.926Z,99538.73
2018-08-13T05:24:36.963Z,99535.25
2018-08-13T05:27:05.275Z,99535.66
2018-08-13T05:29:33.383Z,99532.38
2018-08-13T05:32:01.439Z,99529.22
2018-08-13T05:34:29.503Z,99537.73
2018-08-13T05:36:57.559Z,99537.48
2018-08-13T05:39:25.657Z,99534.39
2018-08-13T05:41:53.707Z,99533.19
2018-08-13T05:44:21.748Z,99532.47
2018-08-13T05:46:49.799Z,99533.54
2018-08-13T05:49:17.880Z,99533.80
2018-08-13T05:51:45.943Z,99527.56
2018-08-13T05:54:13.991Z,99519.60
2018-08-13T05:56:42.019Z,99517.59
2018-08-13T05:59:10.358Z,99512.27
2018-08-13T06:01:38.387Z,99512.72
2018-08-13T06:04:06.844Z,99521.92
2018-08-13T06:06:35.215Z,99520.22
2018-08-13T06:09:03.329Z,99511.48
2018-08-13T06:11:31.416Z,99517.31
2018-08-13T06:13:59.460Z,99531.02
2018-08-13T06:16:27.543Z,99540.07
2018-08-13T06:18:55.599Z,99543.47
2018-08-13T06:21:23.707Z,99547.95
2018-08-13T06:23:52.115Z,99544.05
2018-08-13T06:26:20.209Z,99538.72
2018-08-13T06:28:48.288Z,99550.62
2018-08-13T06:31:16.345Z,99539.33
2018-08-13T06:33:44.396Z,99542.80
2018-08-13T06:36:12.537Z,99541.33
2018-08-13T06:38:40.597Z,99534.42
2018-08-13T06:41:08.965Z,99535.77
2018-08-13T06:43:37.014Z,99531.44
2018-08-13T06:46:05.063Z,99531.74
2018-08-13T06:48:33.107Z,99536.69
2018-08-13T06:51:01.159Z,99535.56
2018-08-13T06:53:29.357Z,99539.77
2018-08-13T06:55:57.422Z,99545.31
2018-08-13T06:58:25.467Z,99546.86
2018-08-13T07:00:53.640Z,99539.95
2018-08-13T07:03:21.708Z,99542.66
2018-08-13T07:05:49.762Z,99550.36
2018-08-13T07:08:17.847Z,99555.59
2018-08-13T07:10:45.900Z,99555.72
2018-08-13T07:13:14.038Z,99567.00
2018-08-13T07:15:42.118Z,99556.72
2018-08-13T07:18:13.361Z,99561.00
2018-08-13T07:20:41.500Z,99562.30
2018-08-13T07:23:09.595Z,99559.17
2018-08-13T07:25:37.763Z,99559.98
2018-08-13T07:28:06.690Z,99559.41
2018-08-13T07:30:34.771Z,99567.94
2018-08-13T07:33:02.948Z,99568.52
2018-08-13T07:35:31.757Z,99573.72
2018-08-13T07:38:00.066Z,99573.08
2018-08-13T07:40:28.120Z,99579.05
2018-08-13T07:42:56.220Z,99594.51
2018-08-13T07:45:24.455Z,99590.59
2018-08-13T07:47:52.652Z,99596.22
2018-08-13T07:50:20.736Z,99605.73
2018-08-13T07:52:49.240Z,99610.35
2018-08-13T07:55:17.331Z,99610.00
2018-08-13T07:57:45.537Z,99625.31
2018-08-13T08:00:15.634Z,99624.32
2018-08-13T08:02:43.893Z,99587.75
2018-08-13T08:05:12.384Z,99635.13
2018-08-13T08:07:40.571Z,99635.91
2018-08-13T08:10:10.485Z,99631.73
2018-08-13T08:12:38.627Z,99629.49
2018-08-13T08:15:11.599Z,99620.05
2018-08-13T08:17:39.847Z,99611.33
2018-08-13T08:20:07.903Z,99604.88
2018-08-13T08:22:36.036Z,99613.13
2018-08-13T08:25:04.939Z,99618.02
2018-08-13T08:27:33.156Z,99620.22
2018-08-13T08:30:01.212Z,99615.93
2018-08-13T08:32:29.544Z,99606.11
2018-08-13T08:34:57.616Z,99608.58
2018-08-13T08:37:25.691Z,99609.98
2018-08-13T08:39:53.753Z,99605.42
2018-08-13T08:42:21.814Z,99600.83
2018-08-13T08:44:50.230Z,99593.66
2018-08-13T08:47:18.314Z,99600.78
2018-08-13T08:49:46.364Z,99605.83
2018-08-13T08:52:14.645Z,99607.38
2018-08-13T08:54:42.744Z,99603.41
2018-08-13T08:57:10.834Z,99600.55
2018-08-13T08:59:38.923Z,99594.75
2018-08-13T09:02:07.107Z,99592.46
2018-08-13T09:04:35.187Z,99595.32
2018-08-13T09:07:03.247Z,99598.69
2018-08-13T09:09:31.476Z,99605.28
2018-08-13T09:11:59.947Z,99606.27
2018-08-13T09:14:28.132Z,99597.86
2018-08-13T09:16:56.286Z,99605.94
2018-08-13T09:19:35.861Z,99603.05
2018-08-13T09:22:15.444Z,99602.88
2018-08-13T09:24:54.827Z,99600.72
2018-08-13T09:27:34.320Z,99594.75
2018-08-13T09:30:13.682Z,99585.30
2018-08-13T09:32:53.181Z,99598.86
2018-08-13T09:35:23.912Z,99594.83
2018-08-13T09:37:52.778Z,99597.20
2018-08-13T09:40:20.907Z,99589.64
2018-08-13T09:42:49.039Z,99590.44
2018-08-13T09:45:17.226Z,99584.55
2018-08-13T09:47:45.395Z,99583.66
2018-08-13T09:50:15.528Z,99588.73
2018-08-13T09:52:44.230Z,99592.28
2018-08-13T09:55:12.884Z,99596.48
2018-08-13T09:57:41.181Z,99598.38
2018-08-13T10:00:15.041Z,99591.23
2018-08-13T10:02:44.509Z,99593.41
2018-08-13T10:05:12.676Z,99587.27
2018-08-13T10:07:41.008Z,99581.69
2018-08-13T10:10:10.011Z,99587.78
2018-08-13T10:12:38.192Z,99588.83
2018-08-13T10:15:06.697Z,99593.30
2018-08-13T10:17:34.817Z,99596.39
2018-08-13T10:20:02.840Z,99604.16
2018-08-13T10:22:30.920Z,99593.37
2018-08-13T10:24:58.980Z,99591.39
2018-08-13T10:27:27.139Z,99589.43
2018-08-13T10:29:55.357Z,99585.40
2018-08-13T10:32:23.429Z,99588.21
2018-08-13T10:34:51.721Z,99584.13
2018-08-13T10:37:19.818Z,99590.06
2018-08-13T10:39:47.872Z,99591.90
2018-08-13T10:42:15.970Z,99582.29
2018-08-13T10:44:44.100Z,99573.59
2018-08-13T10:47:12.162Z,99575.91
2018-08-13T10:49:40.283Z,99571.97
2018-08-13T10:52:08.320Z,99567.03
2018-08-13T10:54:36.430Z,99568.05
2018-08-13T10:57:04.485Z,99564.38
2018-08-13T10:59:32.611Z,99556.60
2018-08-13T11:02:00.668Z,99553.61
2018-08-13T11:04:28.726Z,99555.85
2018-08-13T11:06:56.888Z,99564.78
2018-08-13T11:09:25.132Z,99569.52
2018-08-13T11:11:53.305Z,99577.04
2018-08-13T11:14:21.490Z,99567.02
2018-08-13T11:16:50.548Z,99561.97
2018-08-13T11:19:18.966Z,99562.19
2018-08-13T11:21:47.352Z,99563.47
2018-08-13T11:24:15.629Z,99556.78
2018-08-13T11:26:43.680Z,99549.30
2018-08-13T11:29:11.780Z,99544.23
2018-08-13T11:31:39.823Z,99534.41
2018-08-13T11:34:07.916Z,99533.56
2018-08-13T11:36:35.959Z,99525.75
2018-08-13T11:39:06.558Z,99519.63
2018-08-13T11:41:34.648Z,99516.30
2018-08-13T11:44:02.734Z,99512.17
2018-08-13T11:46:32.319Z,99511.06
2018-08-13T11:49:00.645Z,99503.59
2018-08-13T11:51:29.084Z,99505.46
2018-08-13T11:53:57.198Z,99503.30
2018-08-13T11:56:25.468Z,99496.97
2018-08-13T11:58:53.583Z,99493.83
2018-08-13T12:01:21.756Z,99494.39
2018-08-13T12:03:50.210Z,99493.45
2018-08-13T12:06:18.278Z,99472.13
2018-08-13T12:08:46.433Z,99489.34
2018-08-13T12:11:14.504Z,99480.66
2018-08-13T12:13:42.575Z,99480.93
2018-08-13T12:16:10.700Z,99483.76
2018-08-13T12:18:38.806Z,99490.89
2018-08-13T12:21:07.640Z,99486.23
2018-08-13T12:23:35.721Z,99486.20
2018-08-13T12:26:03.822Z,99480.17
2018-08-13T12:28:31.937Z,99484.92
2018-08-13T12:31:00.085Z,99474.77
2018-08-13T12:33:28.361Z,99485.12
2018-08-13T12:35:56.518Z,99479.61
2018-08-13T12:38:24.660Z,99474.03
2018-08-13T12:40:52.961Z,99471.83
2018-08-13T12:43:21.498Z,99470.13
2018-08-13T12:45:49.750Z,99469.63
2018-08-13T12:48:18.021Z,99464.19
2018-08-13T12:50:46.177Z,99468.09
2018-08-13T12:53:14.331Z,99472.56
2018-08-13T12:55:42.468Z,99464.42
2018-08-13T12:58:10.583Z,99468.30
2018-08-13T13:00:38.718Z,99465.50
2018-08-13T13:03:13.601Z,99465.39
2018-08-13T13:05:41.735Z,99471.39
2018-08-13T13:08:10.040Z,99474.08
2018-08-13T13:10:38.354Z,99470.63
2018-08-13T13:13:06.515Z,99465.20
2018-08-13T13:15:34.689Z,99470.16
2018-08-13T13:18:02.826Z,99470.91
2018-08-13T13:20:30.970Z,99479.25
2018-08-13T13:22:59.321Z,99476.95
2018-08-13T13:25:27.436Z,99477.16
2018-08-13T13:27:55.586Z,99474.52
2018-08-13T13:30:24.093Z,99478.93
2018-08-13T13:32:52.174Z,99468.75
2018-08-13T13:35:20.563Z,99470.91
2018-08-13T13:37:49.134Z,99469.51
2018-08-13T13:40:20.337Z,99478.45
2018-08-13T13:42:49.180Z,99477.37
2018-08-13T13:45:18.469Z,99475.00
2018-08-13T13:47:47.049Z,99465.29
2018-08-13T13:50:17.361Z,99458.41
2018-08-13T13:52:45.805Z,99453.71
2018-08-13T13:55:15.141Z,99462.80
2018-08-13T13:57:45.169Z,99460.76
2018-08-13T14:00:16.302Z,99457.45
2018-08-13T14:02:45.106Z,99457.59
2018-08-13T14:05:13.678Z,99459.01
2018-08-13T14:07:41.825Z,99466.17
2018-08-13T14:10:12.888Z,99447.84
2018-08-13T14:12:40.964Z,99451.17
2018-08-13T14:15:10.730Z,99449.12
2018-08-13T14:17:39.204Z,99449.61
2018-08-13T14:20:08.127Z,99449.31
2018-08-13T14:22:36.256Z,99456.06
2018-08-13T14:25:05.205Z,99458.55
2018-08-13T14:27:33.327Z,99455.12
2018-08-13T14:30:01.380Z,99462.16
2018-08-13T14:32:29.566Z,99448.03
2018-08-13T14:34:57.684Z,99448.46
2018-08-13T14:37:25.856Z,99446.10
2018-08-13T14:39:54.031Z,99449.98
2018-08-13T14:42:22.128Z,99452.02
2018-08-13T14:44:50.606Z,99457.95
2018-08-13T14:47:18.759Z,99457.62
2018-08-13T14:49:46.887Z,99459.47
2018-08-13T14:52:14.964Z,99458.38
2018-08-13T14:54:43.044Z,99457.52
2018-08-13T14:57:11.421Z,99460.45
2018-08-13T14:59:39.569Z,99463.36
2018-08-13T15:02:07.617Z,99464.27
2018-08-13T15:04:35.700Z,99462.32
2018-08-13T15:07:03.780Z,99468.08
2018-08-13T15:09:32.008Z,99482.13
2018-08-13T15:12:00.222Z,99476.15
2018-08-13T15:14:28.356Z,99471.62
2018-08-13T15:16:56.852Z,99483.04
2018-08-13T15:19:25.325Z,99472.28
2018-08-13T15:21:53.495Z,99476.02
2018-08-13T15:24:22.007Z,99485.56
2018-08-13T15:26:50.151Z,99474.80
2018-08-13T15:29:18.227Z,99477.80
2018-08-13T15:31:46.913Z,99482.23
2018-08-13T15:34:15.037Z,99478.21
2018-08-13T15:36:43.502Z,99478.96
2018-08-13T15:39:12.048Z,99482.95
2018-08-13T15:41:40.123Z,99482.81
2018-08-13T15:44:08.186Z,99482.64
2018-08-13T15:46:36.486Z,99470.28
2018-08-13T15:49:04.622Z,99476.53
2018-08-13T15:51:32.689Z,99465.92
2018-08-13T15:54:00.964Z,99467.64
2018-08-13T15:56:29.055Z,99467.67
2018-08-13T15:58:57.130Z,99472.82
2018-08-13T16:01:25.253Z,99468.29
2018-08-13T16:03:53.591Z,99472.23
2018-08-13T16:06:21.674Z,99477.23
2018-08-13T16:08:49.781Z,99449.06
2018-08-13T16:11:17.829Z,99464.45
2018-08-13T16:13:45.888Z,99459.44
2018-08-13T16:16:14.005Z,99455.38
2018-08-13T16:18:42.068Z,99446.14
2018-08-13T16:21:10.174Z,99435.64
2018-08-13T16:23:38.289Z,99443.14
2018-08-13T16:26:06.400Z,99443.31
2018-08-13T16:28:34.471Z,99440.78
2018-08-13T16:31:03.376Z,99445.29
2018-08-13T16:33:31.483Z,99448.55
2018-08-13T16:35:59.571Z,99445.78
2018-08-13T16:38:28.350Z,99437.42
2018-08-13T16:40:56.911Z,99445.94
2018-08-13T16:43:25.120Z,99443.98
2018-08-13T16:45:53.434Z,99445.88
2018-08-13T16:48:21.531Z,99444.59
2018-08-13T16:50:50.040Z,99449.06
2018-08-13T16:53:18.204Z,99450.95
2018-08-13T16:55:46.264Z,99450.23
2018-08-13T16:58:14.394Z,99444.06
2018-08-13T17:00:42.572Z,99440.16
2018-08-13T17:03:10.682Z,99445.97
2018-08-13T17:05:38.795Z,99445.95
2018-08-13T17:08:06.975Z,99450.31
2018-08-13T17:10:35.011Z,99442.05
2018-08-13T17:13:03.266Z,99438.50
2018-08-13T17:15:32.019Z,99428.51
2018-08-13T17:18:01.361Z,99419.19
2018-08-13T17:20:31.199Z,99422.49
2018-08-13T17:22:59.671Z,99425.25
2018-08-13T17:28:08.427Z,99427.09
2018-08-13T17:30:36.487Z,99436.92
2018-08-13T17:33:04.935Z,99444.67
2018-08-13T17:35:34.262Z,99449.55
2018-08-13T17:38:03.155Z,99459.69
2018-08-13T17:40:31.482Z,99464.48
2018-08-13T17:42:59.804Z,99462.70
2018-08-13T17:45:27.872Z,99455.48
2018-08-13T17:47:56.018Z,99463.89
2018-08-13T17:50:24.609Z,99463.51
2018-08-13T17:52:52.808Z,99454.99
2018-08-13T17:55:21.121Z,99463.62
2018-08-13T17:57:49.284Z,99464.28
2018-08-13T18:00:22.437Z,99465.22
2018-08-13T18:02:50.826Z,99476.02
2018-08-13T18:05:21.027Z,99475.37
2018-08-13T18:07:49.463Z,99480.97
2018-08-13T18:10:20.329Z,99485.78
2018-08-13T18:12:48.413Z,99496.44
2018-08-13T18:15:17.075Z,99490.16
2018-08-13T18:17:45.692Z,99492.56
2018-08-13T18:20:13.799Z,99492.33
2018-08-13T18:22:42.024Z,99499.89
2018-08-13T18:25:11.672Z,99511.48
2018-08-13T18:27:40.871Z,99484.61
2018-08-13T18:30:11.844Z,99514.23
2018-08-13T18:32:40.115Z,99512.31
2018-08-13T18:35:08.280Z,99518.63
2018-08-13T18:37:36.355Z,99522.77
2018-08-13T18:40:06.231Z,99528.91
2018-08-13T18:42:34.372Z,99529.80
2018-08-13T18:45:02.435Z,99532.87
2018-08-13T18:47:30.513Z,99534.36
2018-08-13T18:49:58.589Z,99543.45
2018-08-13T18:52:26.761Z,99543.55
2018-08-13T18:54:54.990Z,99546.44
2018-08-13T18:57:23.177Z,99546.95
2018-08-13T18:59:52.469Z,99546.08
2018-08-13T19:02:20.709Z,99555.97
2018-08-13T19:04:49.238Z,99559.73
2018-08-13T19:07:17.395Z,99563.06
2018-08-13T19:09:45.532Z,99568.83
2018-08-13T19:12:13.611Z,99561.75
2018-08-13T19:14:41.693Z,99571.47
2018-08-13T19:17:09.903Z,99571.18
2018-08-13T19:19:38.038Z,99574.09
2018-08-13T19:22:06.391Z,99571.63
2018-08-13T19:24:34.493Z,99577.91
2018-08-13T19:27:02.575Z,99581.39
2018-08-13T19:29:30.751Z,99579.30
2018-08-13T19:31:58.920Z,99581.98
2018-08-13T19:34:27.147Z,99587.66
2018-08-13T19:36:55.442Z,99584.75
2018-08-13T19:39:23.655Z,99589.20
2018-08-13T19:41:51.860Z,99593.91
2018-08-13T19:44:20.221Z,99593.72
2018-08-13T19:46:48.397Z,99600.18
2018-08-13T19:49:16.549Z,99602.63
2018-08-13T19:51:44.652Z,99604.70
2018-08-13T19:54:13.067Z,99606.17
2018-08-13T19:56:41.231Z,99601.44
2018-08-13T19:59:09.668Z,99602.91
2018-08-13T20:01:37.747Z,99581.70
2018-08-13T20:04:05.868Z,99606.54
2018-08-13T20:06:33.946Z,99607.59
2018-08-13T20:09:02.114Z,99614.64
2018-08-13T20:11:30.256Z,99612.35
2018-08-13T20:13:58.368Z,99616.80
2018-08-13T20:16:26.855Z,99614.23
2018-08-13T20:18:55.009Z,99613.17
2018-08-13T20:21:23.221Z,99616.38
2018-08-13T20:23:51.480Z,99614.45
2018-08-13T20:26:19.692Z,99615.74
2018-08-13T20:28:48.115Z,99613.01
2018-08-13T20:31:16.259Z,99620.84
2018-08-13T20:33:44.348Z,99618.72
2018-08-13T20:36:12.529Z,99625.95
2018-08-13T20:38:40.658Z,99627.21
2018-08-13T20:41:08.774Z,99632.86
2018-08-13T20:43:37.060Z,99628.72
2018-08-13T20:46:05.452Z,99631.77
2018-08-13T20:48:33.671Z,99630.23
2018-08-13T20:51:02.051Z,99635.66
2018-08-13T20:53:30.154Z,99633.33
2018-08-13T20:55:58.344Z,99630.62
2018-08-13T20:58:26.535Z,99628.43
2018-08-13T21:00:54.772Z,99628.48
2018-08-13T21:03:22.901Z,99630.48
2018-08-13T21:05:51.053Z,99639.30
2018-08-13T21:08:19.169Z,99632.97
2018-08-13T21:10:47.255Z,99643.34
2018-08-13T21:13:15.456Z,99643.59
2018-08-13T21:15:43.516Z,99648.98
2018-08-13T21:18:11.604Z,99647.58
2018-08-13T21:20:39.710Z,99650.02
2018-08-13T21:23:07.860Z,99659.59
2018-08-13T21:28:10.647Z,99659.84
2018-08-13T21:30:38.817Z,99659.48
2018-08-13T21:33:06.954Z,99661.28
2018-08-13T21:35:35.072Z,99666.94
2018-08-13T21:38:03.159Z,99663.59
2018-08-13T21:40:31.341Z,99666.80
2018-08-13T21:42:59.448Z,99664.61
2018-08-13T21:45:27.512Z,99669.83
2018-08-13T21:47:55.612Z,99672.86
2018-08-13T21:50:24.041Z,99671.11
2018-08-13T21:52:52.694Z,99677.89
2018-08-13T21:55:20.980Z,99685.10
2018-08-13T21:57:49.095Z,99681.87
2018-08-13T22:00:26.261Z,99682.31
2018-08-13T22:02:54.785Z,99683.75
2018-08-13T22:05:22.891Z,99686.78
2018-08-13T22:07:51.026Z,99680.41
2018-08-13T22:10:19.092Z,99683.00
2018-08-13T22:12:47.210Z,99685.43
2018-08-13T22:15:33.899Z,99685.48
2018-08-13T22:18:04.226Z,99690.50
2018-08-13T22:20:33.675Z,99691.09
2018-08-13T22:23:02.428Z,99688.30
2018-08-13T22:25:32.915Z,99690.33
2018-08-13T22:28:04.163Z,99698.91
2018-08-13T22:30:32.975Z,99700.13
2018-08-13T22:33:01.120Z,99697.95
2018-08-13T22:38:03.721Z,99703.52
2018-08-13T22:40:31.891Z,99707.91
2018-08-13T22:43:00.037Z,99706.31
2018-08-13T22:45:28.056Z,99715.48
2018-08-13T22:47:56.125Z,99712.50
2018-08-13T22:50:24.201Z,99710.94
2018-08-13T22:52:52.348Z,99708.39
2018-08-13T22:55:20.456Z,99716.12
2018-08-13T22:57:49.269Z,99715.56
2018-08-13T23:00:20.433Z,99720.78
2018-08-13T23:02:49.453Z,99726.72
2018-08-13T23:05:19.984Z,99720.98
2018-08-13T23:07:48.352Z,99723.93
2018-08-13T23:10:17.919Z,99725.16
2018-08-13T23:12:47.078Z,99738.11
2018-08-13T23:15:15.875Z,99739.47
2018-08-13T23:17:44.712Z,99738.27
2018-08-13T23:20:16.883Z,99741.86
2018-08-13T23:22:48.886Z,99738.83
2018-08-13T23:25:17.783Z,99740.98
2018-08-13T23:27:46.337Z,99740.95
2018-08-13T23:30:15.550Z,99739.14
2018-08-13T23:32:44.664Z,99740.91
2018-08-13T23:35:12.803Z,99748.08
2018-08-13T23:37:41.252Z,99747.44
2018-08-13T23:40:09.836Z,99747.68
2018-08-13T23:42:38.239Z,99750.11
2018-08-13T23:45:09.091Z,99753.73
2018-08-13T23:47:37.224Z,99757.72
2018-08-13T23:50:07.082Z,99751.15
2018-08-13T23:52:35.207Z,99755.93
2018-08-13T23:55:03.499Z,99751.31
2018-08-13T23:57:31.585Z,99755.09
2018-08-13T23:59:59.696Z,99752.09
